KOSC/OSC METAR and TAF weather

Enter ICAO airport designator
Station Type Date Time Source
KOSC METAR 2022/12/10 01:35 UTC NOAA

KOSC 100135Z AUTO 05015G20KT 10SM OVC023 01/M04 A3038 RMK AO2 T00051037


Station Type Date Time Source
KOSC Decoded METAR 2022/12/10 01:35 UTC NOAA

Oscoda, Oscoda-Wurtsmith Airport, MI, United States (KOSC) 44-27N 083-22W
Dec 09, 2022 - 08:35 PM EST / 2022.12.10 0135 UTC
Wind: from the NE (050 degrees) at 17 MPH (15 KT) gusting to 23 MPH (20 KT):0
Visibility: 10 mile(s):0
Sky conditions: overcast
Temperature: 32.9 F (0.5 C)
Windchill: 21 F (-6 C):1
Dew Point: 25.3 F (-3.7 C)
Relative Humidity: 73%
Pressure (altimeter): 30.38 in. Hg (1028 hPa)
ob: KOSC 100135Z AUTO 05015G20KT 10SM OVC023 01/M04 A3038 RMK AO2 T00051037
cycle: 1

Station Type Date Time Source
KOSC TAF UTC NOAA

Error!

Example: see airport list